Time;durP1;ratioP1;P1;durP2;ratioP2;P2;SDS_P1;SDS_P2;PMS_P1;PMS_P2;Temp;Humidity;BMP_temperature;BMP_pressure;BME280_temperature;BME280_humidity;BME280_pressure;Samples;Min_cycle;Max_cycle;Signal;HPM_P1;HPM_P2
2022/06/07 00:00:19;;;;;;;19.80;14.35;;;12.10;99.90;;;;;;5017742;28;20566;-72
2022/06/07 00:02:44;;;;;;;18.70;14.68;;;12.10;99.90;;;;;;5045429;28;20226;-72
2022/06/07 00:05:10;;;;;;;19.73;15.95;;;12.10;99.90;;;;;;5045449;28;20052;-72
2022/06/07 00:07:36;;;;;;;21.05;15.52;;;12.10;99.90;;;;;;5046278;28;20491;-72
2022/06/07 00:10:03;;;;;;;19.63;15.55;;;12.10;99.90;;;;;;5012055;28;20041;-73
2022/06/07 00:12:29;;;;;;;20.73;17.45;;;12.10;99.90;;;;;;5049650;28;20036;-73
2022/06/07 00:14:55;;;;;;;19.65;15.70;;;12.10;99.90;;;;;;5034518;28;20059;-72
2022/06/07 00:17:22;;;;;;;24.02;16.98;;;12.10;99.90;;;;;;5031549;28;20041;-72
2022/06/07 00:19:48;;;;;;;23.98;17.13;;;12.10;99.90;;;;;;5044511;28;20045;-72
2022/06/07 00:22:15;;;;;;;23.33;19.20;;;12.10;99.90;;;;;;5029208;28;20033;-72
2022/06/07 00:24:41;;;;;;;21.73;17.65;;;12.10;99.90;;;;;;5031191;28;20150;-73
2022/06/07 00:27:07;;;;;;;26.40;18.92;;;12.10;99.90;;;;;;5027545;28;20089;-72
2022/06/07 00:29:34;;;;;;;22.85;19.13;;;12.10;99.90;;;;;;5019484;28;20044;-73
2022/06/07 00:32:01;;;;;;;22.20;18.80;;;12.10;99.90;;;;;;5031672;28;20579;-72
2022/06/07 00:34:28;;;;;;;24.60;20.55;;;12.10;99.90;;;;;;5044993;28;20518;-73
2022/06/07 00:36:54;;;;;;;27.17;21.80;;;12.20;99.90;;;;;;5012452;28;20044;-72
2022/06/07 00:39:23;;;;;;;29.98;21.63;;;12.20;99.90;;;;;;5042583;28;20053;-72
2022/06/07 00:41:49;;;;;;;26.83;22.50;;;12.20;99.90;;;;;;5044284;28;20525;-72
2022/06/07 00:44:20;;;;;;;26.52;22.45;;;12.20;99.90;;;;;;5029081;28;20045;-73
2022/06/07 00:46:48;;;;;;;26.10;22.30;;;12.20;99.90;;;;;;5046189;28;20040;-72
2022/06/07 00:49:18;;;;;;;30.73;23.77;;;12.20;99.90;;;;;;5042980;28;20041;-72
2022/06/07 00:51:45;;;;;;;;;;;12.20;99.90;;;;;;5045088;28;20040;-71
2022/06/07 00:54:21;;;;;;;28.50;23.67;;;12.30;99.90;;;;;;5047886;28;19921;-72
2022/06/07 00:56:48;;;;;;;29.30;24.02;;;12.30;99.90;;;;;;5022624;28;20045;-72
2022/06/07 00:59:17;;;;;;;25.80;22.45;;;12.30;99.90;;;;;;5036445;28;20048;-72
2022/06/07 01:01:44;;;;;;;27.03;22.07;;;12.30;99.90;;;;;;5037563;28;20045;-72
2022/06/07 01:04:10;;;;;;;25.02;21.90;;;12.30;99.90;;;;;;5028918;28;20084;-72
2022/06/07 01:12:05;;;;;;;25.63;22.92;;;12.30;99.90;;;;;;5049350;28;20495;-72
2022/06/07 01:14:30;;;;;;;23.70;21.27;;;12.30;99.90;;;;;;5032345;28;20052;-72
2022/06/07 01:16:56;;;;;;;24.55;21.55;;;12.30;99.90;;;;;;5029775;28;20049;-72
2022/06/07 01:19:22;;;;;;;24.90;21.90;;;12.40;99.90;;;;;;5028939;28;20595;-73
2022/06/07 01:21:48;;;;;;;24.85;22.20;;;12.40;99.90;;;;;;5029104;28;20094;-72
2022/06/07 01:24:16;;;;;;;27.20;22.40;;;12.40;99.90;;;;;;5006495;28;20041;-73
2022/06/07 01:26:42;;;;;;;24.67;21.98;;;12.40;99.90;;;;;;5031984;28;20089;-73
2022/06/07 01:29:08;;;;;;;24.63;21.92;;;12.40;99.90;;;;;;5041678;28;20045;-73
2022/06/07 01:31:34;;;;;;;27.90;24.40;;;12.40;99.90;;;;;;5037046;28;20048;-73
2022/06/07 01:34:01;;;;;;;23.88;21.45;;;12.40;99.90;;;;;;5031854;28;20052;-73
2022/06/07 01:36:27;;;;;;;24.60;21.98;;;12.50;99.90;;;;;;5027160;28;20476;-73
2022/06/07 01:41:55;;;;;;;23.60;21.10;;;12.50;99.90;;;;;;5064607;28;20048;-73
2022/06/07 01:44:21;;;;;;;23.48;20.45;;;12.50;99.90;;;;;;5030835;28;20095;-73
2022/06/07 01:46:47;;;;;;;22.63;20.23;;;12.50;99.90;;;;;;5041210;28;20539;-73
2022/06/07 01:49:14;;;;;;;21.40;19.20;;;12.50;99.90;;;;;;5052643;28;20040;-72
2022/06/07 01:51:40;;;;;;;20.90;18.75;;;12.60;99.90;;;;;;5024829;28;20124;-73
2022/06/07 01:54:06;;;;;;;21.27;19.05;;;12.60;99.90;;;;;;5027987;28;20132;-73
2022/06/07 01:56:31;;;;;;;22.55;20.25;;;12.60;99.90;;;;;;5041177;28;20170;-72
2022/06/07 01:58:58;;;;;;;20.85;18.67;;;12.60;99.90;;;;;;5028645;28;20045;-73
2022/06/07 02:01:24;;;;;;;21.45;19.25;;;12.60;99.90;;;;;;5025136;28;20049;-72
2022/06/07 02:03:49;;;;;;;21.48;19.30;;;12.60;99.90;;;;;;5043993;28;20123;-72
2022/06/07 02:06:15;;;;;;;21.23;19.00;;;12.70;99.90;;;;;;5040274;28;20188;-73
2022/06/07 02:08:41;;;;;;;22.13;19.73;;;12.70;99.90;;;;;;5046015;28;20337;-72
2022/06/07 02:11:10;;;;;;;24.48;20.17;;;12.70;99.90;;;;;;5042431;28;20098;-73
2022/06/07 02:13:39;;;;;;;24.23;20.55;;;12.70;99.90;;;;;;5028483;28;20033;-73
2022/06/07 02:16:05;;;;;;;23.95;21.50;;;12.70;99.90;;;;;;5044081;28;20045;-72
2022/06/07 02:18:31;;;;;;;25.23;21.13;;;12.70;99.90;;;;;;5044718;28;20427;-72
2022/06/07 02:21:00;;;;;;;23.42;20.83;;;12.70;99.90;;;;;;5025408;28;20427;-72
2022/06/07 02:23:29;;;;;;;24.48;20.67;;;12.70;99.90;;;;;;5045969;28;20037;-72
2022/06/07 02:25:59;;;;;;;22.73;20.30;;;12.70;99.90;;;;;;5056405;28;20048;-73
2022/06/07 02:28:29;;;;;;;23.35;20.95;;;12.70;99.90;;;;;;5027725;28;20055;-72
2022/06/07 02:30:56;;;;;;;21.67;19.38;;;12.70;99.90;;;;;;5028067;28;20385;-72
2022/06/07 02:33:23;;;;;;;20.45;18.25;;;12.70;99.90;;;;;;5022049;28;20139;-72
2022/06/07 02:35:49;;;;;;;21.83;19.23;;;12.60;99.90;;;;;;5043674;28;20048;-72
2022/06/07 02:38:16;;;;;;;21.15;18.55;;;12.70;99.90;;;;;;5022983;28;20045;-72
2022/06/07 02:40:45;;;;;;;23.90;20.38;;;12.70;99.90;;;;;;5034586;28;20041;-71
2022/06/07 02:43:11;;;;;;;22.40;20.10;;;12.70;99.90;;;;;;5045573;28;20143;-72
2022/06/07 02:45:37;;;;;;;22.17;19.67;;;12.70;99.90;;;;;;5027753;28;20174;-72
2022/06/07 02:48:03;;;;;;;23.40;20.90;;;12.70;99.90;;;;;;5024567;28;20049;-72
2022/06/07 02:50:29;;;;;;;24.85;21.23;;;12.70;99.90;;;;;;5044744;28;20037;-72
2022/06/07 02:52:55;;;;;;;23.10;20.60;;;12.70;99.90;;;;;;5026707;28;20048;-72
2022/06/07 02:55:21;;;;;;;24.90;20.30;;;12.70;99.90;;;;;;5005087;28;20857;-72
2022/06/07 02:57:47;;;;;;;22.58;20.15;;;12.70;99.90;;;;;;5042863;28;20045;-72
2022/06/07 03:00:14;;;;;;;22.95;20.45;;;12.70;99.90;;;;;;5041429;28;20060;-72
2022/06/07 03:02:40;;;;;;;22.23;19.02;;;12.70;99.90;;;;;;5025020;28;20045;-71
2022/06/07 03:05:07;;;;;;;22.55;20.13;;;12.70;99.90;;;;;;5025427;28;20049;-71
2022/06/07 03:07:32;;;;;;;21.42;18.42;;;12.70;99.90;;;;;;5037840;28;20052;-72
2022/06/07 03:09:58;;;;;;;24.08;19.70;;;12.60;99.90;;;;;;5010852;28;20037;-71
2022/06/07 03:12:24;;;;;;;24.25;18.50;;;12.70;99.90;;;;;;5022244;28;20499;-71
2022/06/07 03:14:49;;;;;;;23.65;20.83;;;12.70;99.90;;;;;;5014773;28;20166;-71
2022/06/07 03:17:15;;;;;;;27.00;20.05;;;12.70;99.90;;;;;;5037036;28;20056;-72
2022/06/07 03:19:41;;;;;;;21.80;18.65;;;12.70;99.90;;;;;;5021323;28;20057;-71
2022/06/07 03:22:07;;;;;;;22.23;19.10;;;12.70;99.90;;;;;;5025813;28;20423;-72
2022/06/07 03:24:34;;;;;;;21.50;18.70;;;12.70;99.90;;;;;;5027759;28;20076;-71
2022/06/07 03:27:00;;;;;;;22.77;18.35;;;12.70;99.90;;;;;;5039446;28;20048;-72
2022/06/07 03:29:26;;;;;;;22.90;19.45;;;12.70;99.90;;;;;;5029456;28;20041;-71
2022/06/07 03:31:52;;;;;;;24.30;18.92;;;12.70;99.90;;;;;;5047323;28;20206;-71
2022/06/07 03:34:18;;;;;;;21.90;17.77;;;12.70;99.90;;;;;;5011873;28;20160;-71
2022/06/07 03:36:44;;;;;;;21.17;18.55;;;12.70;99.90;;;;;;5040744;28;20045;-71
2022/06/07 03:39:10;;;;;;;20.80;17.70;;;12.70;99.90;;;;;;4999843;28;20044;-71
2022/06/07 03:41:36;;;;;;;21.80;18.20;;;12.70;99.90;;;;;;5047198;28;20087;-71
2022/06/07 03:44:03;;;;;;;21.88;18.80;;;12.70;99.90;;;;;;5027265;28;20060;-71
2022/06/07 03:46:32;;;;;;;21.15;17.80;;;12.70;99.90;;;;;;5009991;28;20581;-71
2022/06/07 03:48:59;;;;;;;21.20;18.05;;;12.70;99.90;;;;;;5029928;28;20059;-72
2022/06/07 03:51:27;;;;;;;20.90;18.67;;;12.70;99.90;;;;;;5046245;28;20191;-70
2022/06/07 03:53:54;;;;;;;22.90;18.83;;;12.70;99.90;;;;;;5029466;28;20610;-71
2022/06/07 03:56:23;;;;;;;22.70;18.63;;;12.70;99.90;;;;;;5045045;28;20083;-71
2022/06/07 03:58:50;;;;;;;20.37;17.97;;;12.70;99.90;;;;;;5034432;28;20052;-71
2022/06/07 04:01:19;;;;;;;21.92;18.77;;;12.70;99.90;;;;;;5043971;28;20651;-73
2022/06/07 04:03:47;;;;;;;22.25;19.00;;;12.70;99.90;;;;;;5042470;28;20132;-73
2022/06/07 04:06:27;;;;;;;22.75;19.52;;;12.70;99.90;;;;;;5042559;28;20117;-70
2022/06/07 04:08:54;;;;;;;22.00;18.92;;;12.80;99.90;;;;;;5047146;28;20061;-70
2022/06/07 04:11:22;;;;;;;23.20;19.00;;;12.80;99.90;;;;;;5041672;28;20041;-71
2022/06/07 04:13:49;;;;;;;19.55;17.52;;;12.80;99.90;;;;;;5027860;28;20093;-71
2022/06/07 04:16:18;;;;;;;21.42;18.65;;;12.80;99.90;;;;;;5044263;28;20049;-71
2022/06/07 04:18:45;;;;;;;21.00;18.42;;;12.80;99.90;;;;;;5029327;28;20128;-71
2022/06/07 04:21:12;;;;;;;22.30;18.92;;;12.80;99.90;;;;;;5043912;28;20095;-71
2022/06/07 04:23:38;;;;;;;21.80;19.00;;;12.80;99.90;;;;;;5028847;28;20295;-72
2022/06/07 04:26:12;;;;;;;20.42;18.10;;;12.80;99.90;;;;;;5044946;28;20562;-71
2022/06/07 04:28:39;;;;;;;23.17;18.92;;;12.80;99.90;;;;;;4995022;28;20049;-70
2022/06/07 04:31:10;;;;;;;21.00;18.73;;;12.80;99.90;;;;;;5025173;28;20053;-71
2022/06/07 04:33:36;;;;;;;21.30;19.02;;;12.80;99.90;;;;;;5036836;28;20048;-71
2022/06/07 04:36:08;;;;;;;20.23;18.02;;;12.80;99.90;;;;;;5021162;28;20044;-71
2022/06/07 04:38:34;;;;;;;21.30;18.00;;;12.80;99.90;;;;;;5044542;28;20144;-71
2022/06/07 04:40:59;;;;;;;22.85;19.63;;;12.70;99.90;;;;;;5003296;28;20131;-71
2022/06/07 04:43:25;;;;;;;20.90;18.40;;;12.80;99.90;;;;;;5026690;28;20152;-71
2022/06/07 04:45:51;;;;;;;21.58;19.17;;;12.80;99.90;;;;;;5043818;28;20060;-70
2022/06/07 04:48:16;;;;;;;21.17;18.92;;;12.80;99.90;;;;;;5057965;28;20135;-71
2022/06/07 04:50:42;;;;;;;22.60;19.08;;;12.80;99.90;;;;;;5034411;28;20621;-72
2022/06/07 04:53:08;;;;;;;21.92;19.40;;;12.80;99.90;;;;;;5030158;28;20132;-71
2022/06/07 04:55:33;;;;;;;22.15;19.67;;;12.80;99.90;;;;;;5035365;28;20485;-72
2022/06/07 04:57:59;;;;;;;22.33;19.92;;;12.80;99.90;;;;;;5045291;28;20086;-71
2022/06/07 05:00:25;;;;;;;21.98;19.63;;;12.80;99.90;;;;;;5017214;28;20551;-71
2022/06/07 05:02:51;;;;;;;22.23;19.83;;;12.80;99.90;;;;;;5023664;28;20048;-71
2022/06/07 05:05:17;;;;;;;22.77;19.83;;;12.80;99.90;;;;;;5006898;28;20338;-71
2022/06/07 05:07:43;;;;;;;21.40;19.08;;;12.70;99.90;;;;;;5023773;28;20033;-72
2022/06/07 05:10:12;;;;;;;26.13;20.23;;;12.80;99.90;;;;;;5030181;28;20037;-71
2022/06/07 05:12:38;;;;;;;22.33;19.92;;;12.80;99.90;;;;;;5042751;28;20067;-71
2022/06/07 05:15:05;;;;;;;22.70;20.30;;;12.80;99.90;;;;;;5040174;28;20614;-71
2022/06/07 05:17:32;;;;;;;22.52;20.13;;;12.70;99.90;;;;;;5026431;28;20044;-72
2022/06/07 05:19:58;;;;;;;24.40;21.77;;;12.80;99.90;;;;;;5039825;28;20044;-72
2022/06/07 05:22:26;;;;;;;23.98;21.38;;;12.80;99.90;;;;;;5026997;28;20132;-71
2022/06/07 05:24:53;;;;;;;23.55;20.98;;;12.80;99.90;;;;;;5010644;28;20661;-71
2022/06/07 05:27:22;;;;;;;23.80;20.40;;;12.80;99.90;;;;;;5029065;28;20408;-72
2022/06/07 05:29:51;;;;;;;28.20;21.92;;;12.70;99.90;;;;;;5035240;28;20047;-71
2022/06/07 05:32:17;;;;;;;24.13;20.33;;;12.80;99.90;;;;;;5048602;28;20071;-71
2022/06/07 05:34:44;;;;;;;24.02;21.45;;;12.80;99.90;;;;;;5028802;28;20080;-71
2022/06/07 05:37:19;;;;;;;22.80;20.50;;;12.80;99.90;;;;;;5039107;28;20487;-72
2022/06/07 05:39:45;;;;;;;24.17;21.42;;;12.80;99.90;;;;;;5043680;28;20049;-72
2022/06/07 05:42:12;;;;;;;28.15;23.17;;;12.70;99.90;;;;;;5029165;28;20049;-72
2022/06/07 05:44:39;;;;;;;27.38;24.42;;;12.70;99.90;;;;;;5013820;28;20106;-71
2022/06/07 05:47:06;;;;;;;31.40;24.05;;;12.70;99.90;;;;;;5043587;28;20059;-71
2022/06/07 05:49:32;;;;;;;26.75;23.88;;;12.70;99.90;;;;;;5028896;28;20102;-72
2022/06/07 05:51:58;;;;;;;28.48;22.30;;;12.70;99.90;;;;;;5023958;28;20519;-72
2022/06/07 05:54:23;;;;;;;23.00;20.42;;;12.60;99.90;;;;;;5041053;28;20041;-71
2022/06/07 05:56:49;;;;;;;24.30;20.48;;;12.60;99.90;;;;;;5041461;28;20106;-72
2022/06/07 05:59:16;;;;;;;25.38;20.50;;;12.60;99.90;;;;;;5039922;28;20381;-71
2022/06/07 06:01:41;;;;;;;23.10;20.40;;;12.60;99.90;;;;;;5043558;28;20127;-72
2022/06/07 06:04:08;;;;;;;21.10;17.80;;;12.60;99.90;;;;;;5010547;28;20547;-72
2022/06/07 06:06:35;;;;;;;21.85;18.20;;;12.60;99.90;;;;;;5040278;28;20114;-71
2022/06/07 06:11:46;;;;;;;23.92;18.67;;;12.50;99.90;;;;;;5049483;28;20049;-71
2022/06/07 06:14:13;;;;;;;20.48;17.80;;;12.50;99.90;;;;;;5031061;28;20131;-71
2022/06/07 06:16:38;;;;;;;19.58;17.20;;;12.40;99.90;;;;;;5046119;28;20040;-70
2022/06/07 06:19:07;;;;;;;18.40;16.27;;;12.40;99.90;;;;;;5043528;28;20090;-70
2022/06/07 06:21:37;;;;;;;24.00;18.33;;;12.40;99.90;;;;;;5025878;28;20044;-70
2022/06/07 06:24:03;;;;;;;19.13;16.50;;;12.40;99.90;;;;;;5037542;28;20036;-71
2022/06/07 06:26:29;;;;;;;22.08;18.55;;;12.30;99.90;;;;;;5047442;28;20071;-71
2022/06/07 06:28:55;;;;;;;21.38;17.30;;;12.30;99.90;;;;;;5026111;28;20055;-71
2022/06/07 06:31:22;;;;;;;22.02;17.25;;;12.30;99.90;;;;;;5045377;28;20353;-71
2022/06/07 06:33:50;;;;;;;24.45;18.17;;;12.30;99.90;;;;;;5045888;28;20483;-71
2022/06/07 06:36:20;;;;;;;23.02;17.35;;;12.30;99.90;;;;;;5058325;28;20060;-71
2022/06/07 06:38:46;;;;;;;20.73;16.90;;;12.30;99.90;;;;;;5043744;28;20494;-71
2022/06/07 06:41:22;;;;;;;22.38;17.73;;;12.20;99.90;;;;;;5031464;28;20326;-72
2022/06/07 06:43:49;;;;;;;20.95;18.63;;;12.30;99.90;;;;;;5047650;28;20049;-71
2022/06/07 06:46:18;;;;;;;20.15;14.75;;;12.30;99.90;;;;;;5040506;28;20041;-72
2022/06/07 06:48:44;;;;;;;12.23;10.93;;;12.30;99.90;;;;;;5027514;28;20076;-72
2022/06/07 06:51:12;;;;;;;13.70;11.07;;;12.30;99.90;;;;;;5041734;28;20036;-72
2022/06/07 06:53:41;;;;;;;13.45;10.52;;;12.30;99.90;;;;;;5044262;28;20434;-72
2022/06/07 06:56:08;;;;;;;15.48;12.07;;;12.20;99.90;;;;;;5042014;28;20148;-72
2022/06/07 06:58:34;;;;;;;15.00;11.85;;;12.20;99.90;;;;;;5047041;28;20072;-72
2022/06/07 07:01:03;;;;;;;14.13;12.25;;;12.20;99.90;;;;;;5026583;28;20520;-72
2022/06/07 07:03:30;;;;;;;16.40;13.15;;;12.30;99.90;;;;;;5056189;28;20052;-72
2022/06/07 07:05:56;;;;;;;19.27;14.95;;;12.30;99.90;;;;;;5052346;28;20044;-72
2022/06/07 07:08:25;;;;;;;17.33;14.65;;;12.40;99.90;;;;;;5016240;28;20045;-72
2022/06/07 07:11:22;;;;;;;17.47;15.20;;;12.40;99.90;;;;;;5027470;28;20067;-73
2022/06/07 07:13:49;;;;;;;21.60;16.05;;;12.50;99.90;;;;;;5045555;28;20045;-71
2022/06/07 07:16:22;;;;;;;21.10;16.85;;;12.50;99.90;;;;;;5033167;28;20053;-71
2022/06/07 07:18:49;;;;;;;20.75;17.80;;;12.50;99.90;;;;;;5044823;28;20049;-72
2022/06/07 07:21:26;;;;;;;18.75;16.00;;;12.60;99.90;;;;;;5029937;28;20366;-72
2022/06/07 07:23:53;;;;;;;17.40;15.18;;;12.60;99.90;;;;;;5042761;28;20049;-71
2022/06/07 07:26:24;;;;;;;21.00;14.32;;;12.70;99.90;;;;;;5047861;28;20072;-72
2022/06/07 07:28:52;;;;;;;15.77;11.80;;;12.70;99.90;;;;;;5045425;28;20048;-73
2022/06/07 07:31:21;;;;;;;12.52;8.73;;;12.80;99.90;;;;;;5043931;28;20049;-72
2022/06/07 07:33:47;;;;;;;11.77;7.78;;;12.80;99.90;;;;;;5046996;28;20044;-73
2022/06/07 07:36:14;;;;;;;11.63;8.57;;;12.80;99.90;;;;;;5031948;28;20037;-71
2022/06/07 07:38:41;;;;;;;13.27;8.57;;;12.70;99.90;;;;;;5024880;28;20053;-71
2022/06/07 07:41:20;;;;;;;12.40;8.48;;;12.70;99.90;;;;;;5025006;28;20438;-72
2022/06/07 07:43:48;;;;;;;11.13;7.75;;;12.70;99.90;;;;;;5026588;28;20047;-72
2022/06/07 07:46:14;;;;;;;11.43;7.60;;;12.60;99.90;;;;;;5054108;28;20128;-71
2022/06/07 07:48:40;;;;;;;14.55;7.38;;;12.60;99.90;;;;;;5048427;28;20368;-71
2022/06/07 07:51:08;;;;;;;13.32;8.00;;;12.60;99.90;;;;;;5041109;28;20533;-71
2022/06/07 07:53:34;;;;;;;10.80;7.78;;;12.60;99.90;;;;;;5049105;28;20140;-71
2022/06/07 07:56:00;;;;;;;11.90;7.43;;;12.60;99.90;;;;;;5046603;28;20040;-71
2022/06/07 07:58:26;;;;;;;12.63;7.88;;;12.60;99.90;;;;;;5049889;28;20048;-71
2022/06/07 08:00:52;;;;;;;12.05;7.32;;;12.60;99.90;;;;;;5049491;28;20557;-71
2022/06/07 08:03:19;;;;;;;10.07;7.10;;;12.60;99.90;;;;;;5027505;28;20302;-70
2022/06/07 08:05:45;;;;;;;10.93;7.55;;;12.50;99.90;;;;;;5033981;28;20098;-73
2022/06/07 08:08:12;;;;;;;9.68;7.30;;;12.60;99.90;;;;;;5047073;28;20076;-72
2022/06/07 08:10:39;;;;;;;8.40;6.45;;;12.60;99.90;;;;;;5044327;28;20041;-73
2022/06/07 08:13:07;;;;;;;10.10;6.60;;;12.60;99.90;;;;;;5029750;28;20522;-72
2022/06/07 08:15:35;;;;;;;13.07;7.50;;;12.60;99.90;;;;;;5032484;28;20037;-72
2022/06/07 08:18:03;;;;;;;11.15;7.32;;;12.50;99.90;;;;;;5032271;28;20049;-72
2022/06/07 08:20:33;;;;;;;13.68;7.72;;;12.50;99.90;;;;;;5046550;28;20056;-72
2022/06/07 08:22:59;;;;;;;12.07;8.38;;;12.60;99.90;;;;;;5063835;28;20091;-72
2022/06/07 08:25:25;;;;;;;16.25;8.35;;;12.60;99.90;;;;;;5034768;28;20100;-71
2022/06/07 08:27:51;;;;;;;11.77;8.23;;;12.70;99.90;;;;;;5031837;28;20037;-71
2022/06/07 08:30:16;;;;;;;11.52;8.00;;;12.70;99.90;;;;;;5048222;28;20040;-72
2022/06/07 08:32:42;;;;;;;12.07;8.25;;;12.70;99.90;;;;;;5026800;28;20065;-72
2022/06/07 08:37:58;;;;;;;18.23;10.30;;;12.70;99.90;;;;;;5046054;28;20053;-72
2022/06/07 08:40:35;;;;;;;14.23;9.38;;;12.70;99.90;;;;;;5028524;28;20075;-72
2022/06/07 08:43:23;;;;;;;12.27;10.23;;;12.80;99.90;;;;;;5029265;28;21155;-72
2022/06/07 08:45:50;;;;;;;15.50;10.02;;;12.80;99.90;;;;;;5052397;28;20049;-72
2022/06/07 08:48:20;;;;;;;19.48;11.63;;;12.80;99.90;;;;;;5030731;28;20060;-71
2022/06/07 08:50:58;;;;;;;;;;;12.90;99.90;;;;;;5047387;28;20040;-71
2022/06/07 08:53:34;;;;;;;16.85;11.38;;;12.90;99.90;;;;;;5060158;28;19947;-71
2022/06/07 08:56:03;;;;;;;17.58;11.10;;;12.90;99.90;;;;;;5038564;28;20120;-72
2022/06/07 08:58:35;;;;;;;17.90;11.57;;;12.90;99.90;;;;;;5046285;28;20045;-71
2022/06/07 09:01:27;;;;;;;17.88;11.48;;;12.90;99.90;;;;;;5049995;28;20124;-72
2022/06/07 09:04:31;;;;;;;15.30;10.07;;;12.90;99.90;;;;;;5040423;28;20049;-73
2022/06/07 09:07:03;;;;;;;14.73;10.32;;;12.90;99.90;;;;;;5022336;28;20040;-73
2022/06/07 09:12:29;;;;;;;19.08;10.00;;;12.90;99.90;;;;;;5069069;28;20045;-72
2022/06/07 09:15:04;;;;;;;16.08;9.93;;;12.90;99.90;;;;;;5045074;28;20053;-73
2022/06/07 09:17:37;;;;;;;15.68;10.23;;;12.90;99.90;;;;;;5051185;28;20045;-73
2022/06/07 09:20:17;;;;;;;17.58;10.20;;;12.90;99.90;;;;;;5066753;28;20131;-72
2022/06/07 09:22:51;;;;;;;13.77;10.25;;;12.90;99.90;;;;;;5028125;28;20049;-71
2022/06/07 09:25:35;;;;;;;15.93;10.23;;;12.90;99.90;;;;;;5030900;28;20563;-71
2022/06/07 09:28:03;;;;;;;14.27;9.45;;;12.90;99.90;;;;;;5051213;28;20146;-72
2022/06/07 09:30:37;;;;;;;14.20;10.05;;;12.90;99.90;;;;;;5044715;28;20471;-72
2022/06/07 09:33:10;;;;;;;12.25;9.40;;;12.90;99.90;;;;;;5026407;28;20052;-72
2022/06/07 09:35:42;;;;;;;12.15;8.40;;;12.90;99.90;;;;;;5066228;28;20041;-72
2022/06/07 09:38:28;;;;;;;13.43;8.65;;;12.90;99.90;;;;;;5042483;28;20182;-72
2022/06/07 09:40:56;;;;;;;12.73;8.00;;;12.90;99.90;;;;;;5027459;28;20073;-72
2022/06/07 09:43:28;;;;;;;9.85;7.10;;;12.90;99.90;;;;;;5045832;28;20448;-72
2022/06/07 09:46:05;;;;;;;7.75;4.78;;;13.00;99.90;;;;;;5060673;28;20492;-71
2022/06/07 09:48:44;;;;;;;7.78;3.70;;;13.00;99.90;;;;;;5042011;28;20352;-70
2022/06/07 09:51:21;;;;;;;6.57;3.40;;;13.10;99.90;;;;;;5026443;28;20037;-71
2022/06/07 09:53:59;;;;;;;9.45;3.53;;;13.20;99.90;;;;;;5030214;28;20106;-72
2022/06/07 09:56:55;;;;;;;6.57;3.28;;;13.20;99.90;;;;;;5046323;28;20414;-71
2022/06/07 09:59:49;;;;;;;8.45;3.30;;;13.20;99.90;;;;;;5030942;28;20056;-72
2022/06/07 10:02:57;;;;;;;5.50;3.13;;;13.20;99.90;;;;;;5043385;28;20048;-72
2022/06/07 10:05:42;;;;;;;6.03;3.00;;;13.20;99.90;;;;;;5044505;28;20048;-72
2022/06/07 10:08:26;;;;;;;8.02;3.35;;;13.20;99.90;;;;;;5023812;28;20041;-71
2022/06/07 10:11:11;;;;;;;7.43;4.22;;;13.20;99.90;;;;;;5045822;28;20120;-72
2022/06/07 10:13:43;;;;;;;6.00;4.13;;;13.20;99.90;;;;;;5059021;28;20049;-71
2022/06/07 10:16:30;;;;;;;6.57;4.30;;;13.20;99.90;;;;;;5026344;28;20056;-72
2022/06/07 10:19:11;;;;;;;7.28;4.20;;;13.20;99.90;;;;;;5044075;28;20059;-72
2022/06/07 10:21:52;;;;;;;7.95;4.03;;;13.10;99.90;;;;;;5029973;28;20479;-72
2022/06/07 10:24:51;;;;;;;7.07;4.07;;;13.10;99.90;;;;;;5039453;28;20048;-72
2022/06/07 10:27:29;;;;;;;4.75;3.00;;;13.10;99.90;;;;;;5042702;28;20467;-72
2022/06/07 10:30:18;;;;;;;6.03;3.20;;;13.20;99.90;;;;;;5025710;28;20044;-72
2022/06/07 10:33:28;;;;;;;4.25;2.65;;;13.20;99.90;;;;;;5041655;28;20044;-72
2022/06/07 10:36:50;;;;;;;5.05;2.90;;;13.20;99.90;;;;;;4979189;28;20056;-71
2022/06/07 10:39:35;;;;;;;4.50;2.75;;;13.10;99.90;;;;;;4950383;28;20061;-72
2022/06/07 10:42:43;;;;;;;3.47;2.55;;;13.10;99.90;;;;;;5043439;28;20041;-72
2022/06/07 10:45:21;;;;;;;5.30;3.30;;;13.10;99.90;;;;;;5047638;28;20037;-72
2022/06/07 10:47:59;;;;;;;4.72;2.97;;;13.10;99.90;;;;;;5042743;28;20123;-70
2022/06/07 10:50:38;;;;;;;4.28;2.50;;;13.10;99.90;;;;;;5023999;28;20045;-70
2022/06/07 10:53:16;;;;;;;5.55;2.72;;;13.20;99.90;;;;;;5030493;28;20130;-71
2022/06/07 10:55:54;;;;;;;4.65;2.40;;;13.30;99.90;;;;;;5048278;28;20293;-71
2022/06/07 10:58:29;;;;;;;4.05;2.05;;;13.40;99.90;;;;;;5043496;28;20120;-71
2022/06/07 11:01:18;;;;;;;4.32;2.35;;;13.40;99.90;;;;;;5042661;28;20459;-71
2022/06/07 11:04:07;;;;;;;5.18;2.30;;;13.50;99.90;;;;;;5036745;28;20049;-72
2022/06/07 11:09:54;;;;;;;4.20;2.10;;;13.50;99.90;;;;;;5060035;28;20056;-71
2022/06/07 11:12:31;;;;;;;2.83;1.45;;;13.40;99.90;;;;;;5038525;28;20130;-72
2022/06/07 11:15:07;;;;;;;3.95;1.52;;;13.40;99.90;;;;;;5042656;28;20048;-72
2022/06/07 11:17:55;;;;;;;4.95;2.00;;;13.50;99.90;;;;;;5062545;28;20053;-72
2022/06/07 11:20:31;;;;;;;5.07;1.90;;;13.50;99.90;;;;;;5040666;28;20049;-72
2022/06/07 11:23:23;;;;;;;5.30;1.77;;;13.50;99.90;;;;;;5042922;28;20045;-72
2022/06/07 11:26:14;;;;;;;8.73;2.20;;;13.40;99.90;;;;;;5043089;28;20045;-72
2022/06/07 11:28:40;;;;;;;7.57;2.28;;;13.40;99.90;;;;;;5024820;28;21441;-71
2022/06/07 11:31:15;;;;;;;5.55;2.33;;;13.30;99.90;;;;;;5046922;28;20052;-72
2022/06/07 11:33:47;;;;;;;6.95;2.60;;;13.30;99.90;;;;;;5045935;28;20439;-71
2022/06/07 11:36:12;;;;;;;5.82;2.70;;;13.20;99.90;;;;;;5047337;28;20060;-72
2022/06/07 11:38:56;;;;;;;5.07;2.05;;;13.20;99.90;;;;;;5030883;28;20053;-72
2022/06/07 11:41:37;;;;;;;8.88;2.80;;;13.10;99.90;;;;;;5045202;28;20044;-72
2022/06/07 11:44:12;;;;;;;6.15;2.53;;;13.10;99.90;;;;;;5052509;28;20053;-72
2022/06/07 11:46:50;;;;;;;7.07;2.72;;;13.10;99.90;;;;;;5043974;28;20508;-72
2022/06/07 11:49:24;;;;;;;8.32;2.92;;;13.10;99.90;;;;;;5032948;28;20499;-72
2022/06/07 11:52:12;;;;;;;6.93;2.45;;;13.00;99.90;;;;;;5045832;28;20091;-72
2022/06/07 11:54:45;;;;;;;9.02;3.30;;;13.00;99.90;;;;;;5029217;28;20048;-72
2022/06/07 11:57:35;;;;;;;8.32;2.75;;;13.00;99.90;;;;;;5063419;28;20056;-72
2022/06/07 12:00:20;;;;;;;7.35;3.10;;;13.00;99.90;;;;;;5035562;28;20067;-72
2022/06/07 12:02:58;;;;;;;7.53;2.80;;;13.00;99.90;;;;;;5048430;28;20091;-72
2022/06/07 12:05:29;;;;;;;10.07;3.42;;;13.00;99.90;;;;;;5031116;28;20521;-72
2022/06/07 12:08:38;;;;;;;7.25;2.72;;;12.90;99.90;;;;;;5046521;28;20047;-71
2022/06/07 12:11:23;;;;;;;5.55;2.40;;;12.90;99.90;;;;;;5046025;28;20044;-72
2022/06/07 12:14:10;;;;;;;6.45;3.10;;;12.90;99.90;;;;;;5064126;28;20048;-73
2022/06/07 12:16:40;;;;;;;5.80;2.53;;;13.00;99.90;;;;;;5054191;28;20627;-72
2022/06/07 12:19:16;;;;;;;5.40;3.15;;;13.00;99.90;;;;;;5030566;28;20056;-72
2022/06/07 12:22:09;;;;;;;5.00;2.88;;;13.00;99.90;;;;;;5048935;28;20048;-72
2022/06/07 12:24:59;;;;;;;5.68;3.13;;;13.10;99.90;;;;;;5028770;28;20057;-72
2022/06/07 12:27:28;;;;;;;7.10;3.15;;;13.10;99.90;;;;;;5051313;28;20037;-73
2022/06/07 12:30:00;;;;;;;7.70;3.50;;;13.20;99.90;;;;;;5047260;28;20771;-73
2022/06/07 12:32:37;;;;;;;7.28;4.35;;;13.20;99.90;;;;;;5028691;28;20084;-73
2022/06/07 12:35:28;;;;;;;8.73;4.55;;;13.20;99.90;;;;;;5053361;28;20092;-73
2022/06/07 12:38:00;;;;;;;9.00;5.07;;;13.20;99.90;;;;;;5045791;28;20041;-73
2022/06/07 12:40:34;;;;;;;6.90;5.22;;;13.20;99.90;;;;;;5032174;28;20037;-73
2022/06/07 12:43:00;;;;;;;7.95;4.60;;;13.20;99.90;;;;;;5035098;28;20037;-73
2022/06/07 12:45:34;;;;;;;10.40;5.30;;;13.30;99.90;;;;;;5048625;28;20084;-72
2022/06/07 12:48:28;;;;;;;13.30;5.20;;;13.20;99.90;;;;;;5026797;28;20045;-73
2022/06/07 12:50:54;;;;;;;9.15;5.28;;;13.20;99.90;;;;;;5041935;28;20045;-73
2022/06/07 12:53:27;;;;;;;11.23;5.93;;;13.20;99.90;;;;;;5027214;28;20045;-72
2022/06/07 12:56:02;;;;;;;12.10;7.07;;;13.20;99.90;;;;;;5046737;28;20044;-72
2022/06/07 12:58:35;;;;;;;11.50;6.43;;;13.30;99.90;;;;;;5026984;28;20052;-73
2022/06/07 13:01:01;;;;;;;11.32;6.22;;;13.30;99.90;;;;;;5044324;28;20043;-73
2022/06/07 13:03:32;;;;;;;8.88;5.50;;;13.40;99.90;;;;;;5027395;28;20128;-72
2022/06/07 13:05:59;;;;;;;;;;;13.50;99.90;;;;;;5044646;28;20048;-72
2022/06/07 13:08:32;;;;;;;9.10;4.97;;;13.50;99.90;;;;;;5047328;28;19924;-72
2022/06/07 13:10:58;;;;;;;10.32;5.10;;;13.50;99.90;;;;;;5047089;28;20045;-72
2022/06/07 13:13:34;;;;;;;16.55;5.82;;;13.60;99.90;;;;;;5043496;28;20317;-72